Time;durP1;ratioP1;P1;durP2;ratioP2;P2;SDS_P1;SDS_P2;PMS_P1;PMS_P2;Temp;Humidity;BMP_temperature;BMP_pressure;BME280_temperature;BME280_humidity;BME280_pressure;Samples;Min_cycle;Max_cycle;Signal;HPM_P1;HPM_P2
2022/12/04 00:01:23;;;;;;;0.65;0.65;;;;;;;10.88;95.23;100634.69;4929453;29;20056;-71
2022/12/04 00:03:53;;;;;;;1.40;0.93;;;;;;;11.01;94.94;100633.25;4916287;29;20057;-72
2022/12/04 00:06:22;;;;;;;2.28;0.88;;;;;;;11.07;94.71;100636.78;4931614;29;20051;-73
2022/12/04 00:08:51;;;;;;;1.67;1.05;;;;;;;10.86;95.42;100634.16;4934587;29;20059;-75
2022/12/04 00:11:25;;;;;;;2.33;1.00;;;;;;;10.96;95.23;100628.59;4935224;29;20487;-73
2022/12/04 00:13:53;;;;;;;1.10;1.00;;;;;;;10.77;95.88;100635.81;4934659;29;20052;-73
2022/12/04 00:16:24;;;;;;;1.38;0.88;;;;;;;11.09;94.56;100615.41;4933021;29;20051;-73
2022/12/04 00:18:53;;;;;;;1.83;1.15;;;;;;;11.20;93.89;100616.16;4933797;29;20051;-72
2022/12/04 00:21:22;;;;;;;0.93;0.82;;;;;;;10.99;95.10;100603.41;4934853;29;20488;-72
2022/12/04 00:23:51;;;;;;;1.42;1.02;;;;;;;10.99;95.01;100613.53;4935053;29;20051;-72
2022/12/04 00:26:25;;;;;;;1.83;1.02;;;;;;;11.04;95.17;100610.78;4934872;29;20075;-72
2022/12/04 00:28:54;;;;;;;1.45;1.35;;;;;;;11.10;95.09;100600.63;4934268;29;20502;-72
2022/12/04 00:31:26;;;;;;;1.13;1.00;;;;;;;11.12;94.15;100590.19;4935055;29;20063;-72
2022/12/04 00:33:54;;;;;;;1.17;0.82;;;;;;;11.32;93.91;100574.72;4934734;29;20051;-72
2022/12/04 00:36:25;;;;;;;2.72;1.30;;;;;;;11.34;93.02;100561.56;4934205;29;20499;-73
2022/12/04 00:38:54;;;;;;;0.88;0.82;;;;;;;11.21;93.96;100555.63;4933958;29;20048;-72
2022/12/04 00:41:24;;;;;;;1.17;1.08;;;;;;;11.23;93.88;100564.38;4934172;29;20376;-73
2022/12/04 00:43:52;;;;;;;1.15;0.90;;;;;;;11.20;94.34;100556.72;4934942;29;20055;-73
2022/12/04 00:46:20;;;;;;;2.25;0.95;;;;;;;11.26;94.30;100550.13;4934067;29;20052;-74
2022/12/04 00:48:49;;;;;;;1.30;0.75;;;;;;;11.32;95.72;100555.53;4934846;29;20048;-73
2022/12/04 00:51:22;;;;;;;1.80;1.42;;;;;;;11.37;96.59;100550.84;4933564;29;20052;-73
2022/12/04 00:53:51;;;;;;;1.38;0.75;;;;;;;11.09;97.94;100541.47;4934481;29;20052;-72
2022/12/04 00:56:26;;;;;;;0.93;0.80;;;;;;;11.20;97.44;100537.53;4933820;29;20051;-73
2022/12/04 00:58:56;;;;;;;1.20;1.10;;;;;;;11.36;97.20;100534.69;4934805;29;20056;-72
2022/12/04 01:01:26;;;;;;;0.82;0.80;;;;;;;11.27;97.65;100538.06;4934687;29;20078;-72
2022/12/04 01:03:54;;;;;;;1.20;0.45;;;;;;;11.18;98.28;100542.50;4934480;29;20055;-73
2022/12/04 01:06:33;;;;;;;1.70;1.13;;;;;;;11.18;98.29;100537.00;4924945;29;20502;-73
2022/12/04 01:09:03;;;;;;;1.30;1.20;;;;;;;11.20;97.13;100536.75;4915791;29;20053;-74
2022/12/04 01:11:32;;;;;;;1.15;1.13;;;;;;;11.36;96.03;100535.53;4922644;29;20051;-73
2022/12/04 01:14:00;;;;;;;1.10;1.00;;;;;;;11.28;95.70;100523.25;4933209;29;20054;-73
2022/12/04 01:16:32;;;;;;;1.88;1.25;;;;;;;11.36;96.19;100512.78;4932412;29;20087;-73
2022/12/04 01:19:04;;;;;;;1.73;1.40;;;;;;;11.39;96.01;100507.53;4933522;29;20058;-74
2022/12/04 01:21:33;;;;;;;2.70;1.70;;;;;;;11.34;96.11;100515.00;4934632;29;20047;-75
2022/12/04 01:24:01;;;;;;;3.15;1.73;;;;;;;11.38;96.42;100514.13;4933849;29;20060;-73
2022/12/04 01:26:29;;;;;;;1.75;1.23;;;;;;;11.37;96.46;100512.50;4937165;29;20047;-75
2022/12/04 01:28:57;;;;;;;2.60;1.35;;;;;;;11.35;96.43;100519.38;4937867;29;20056;-75
2022/12/04 01:31:25;;;;;;;2.38;1.50;;;;;;;11.28;96.28;100506.81;4934366;29;20044;-74
2022/12/04 01:33:53;;;;;;;2.55;1.38;;;;;;;11.45;95.56;100510.22;4937088;29;20059;-74
2022/12/04 01:36:24;;;;;;;2.20;2.00;;;;;;;11.36;96.25;100493.59;4926284;29;20048;-75
2022/12/04 01:38:53;;;;;;;2.30;1.70;;;;;;;11.48;95.82;100494.03;4937917;29;20047;-73
2022/12/04 01:41:24;;;;;;;1.95;1.75;;;;;;;11.54;94.86;100492.88;4935502;29;20071;-73
2022/12/04 01:44:31;;;;;;;2.60;2.13;;;;;;;11.52;95.27;100495.09;4918835;29;20057;-73
2022/12/04 01:47:00;;;;;;;2.80;2.25;;;;;;;11.68;94.82;100493.03;4931011;29;20059;-73
2022/12/04 01:49:39;;;;;;;2.97;2.25;;;;;;;11.51;95.38;100488.00;4937717;29;20056;-74
2022/12/04 01:52:24;;;;;;;4.22;2.13;;;;;;;11.40;95.93;100478.22;4937545;29;20058;-73
2022/12/04 01:54:59;;;;;;;2.50;1.83;;;;;;;11.58;94.67;100473.13;4935218;29;20062;-73
2022/12/04 01:57:31;;;;;;;3.75;2.10;;;;;;;11.61;95.07;100469.78;4936928;29;20047;-74
2022/12/04 02:00:12;;;;;;;2.75;1.90;;;;;;;11.73;94.21;100451.03;4936105;29;20075;-74
2022/12/04 02:02:43;;;;;;;2.00;1.80;;;;;;;11.79;93.81;100460.81;4936368;29;20047;-74
2022/12/04 02:05:15;;;;;;;3.90;2.17;;;;;;;11.61;94.96;100464.31;4936324;29;20053;-74
2022/12/04 02:07:45;;;;;;;2.67;2.08;;;;;;;11.84;93.32;100462.72;4935206;29;20055;-73
2022/12/04 02:10:16;;;;;;;2.92;2.33;;;;;;;11.86;93.65;100455.00;4937609;29;20048;-73
2022/12/04 02:12:59;;;;;;;1.73;1.55;;;;;;;11.93;92.99;100439.00;4937232;29;20048;-74
2022/12/04 02:15:33;;;;;;;4.93;2.17;;;;;;;11.87;93.35;100440.19;4936727;29;20060;-75
2022/12/04 02:18:39;;;;;;;3.80;2.53;;;;;;;11.79;93.84;100438.88;4937200;29;20043;-75
2022/12/04 02:21:24;;;;;;;2.10;1.90;;;;;;;11.74;93.62;100433.50;4937182;29;20047;-76
2022/12/04 02:24:25;;;;;;;2.83;1.92;;;;;;;11.92;92.62;100433.81;4937001;29;20059;-71
2022/12/04 02:26:57;;;;;;;2.42;1.88;;;;;;;12.01;92.98;100436.72;4930991;29;20068;-74
2022/12/04 02:29:47;;;;;;;3.97;2.33;;;;;;;11.88;93.28;100421.81;4936893;29;20478;-73
2022/12/04 02:32:27;;;;;;;3.35;2.38;;;;;;;11.95;92.92;100425.00;4935673;29;20044;-72
2022/12/04 02:35:05;;;;;;;3.58;2.25;;;;;;;11.85;92.82;100428.69;4935988;29;20052;-75
2022/12/04 02:37:41;;;;;;;3.33;2.10;;;;;;;11.96;92.53;100421.97;4934213;29;20043;-74
2022/12/04 02:40:21;;;;;;;2.30;2.10;;;;;;;12.06;92.02;100407.34;4936091;29;20047;-73
2022/12/04 02:43:16;;;;;;;3.20;2.30;;;;;;;12.12;91.95;100401.81;4935639;29;20533;-74
2022/12/04 02:45:45;;;;;;;;;;;;;;;12.27;91.55;100403.53;4936292;29;20066;-73
2022/12/04 02:48:18;;;;;;;2.35;2.10;;;;;;;12.33;91.08;100394.91;4936661;29;20374;-74
2022/12/04 02:50:50;;;;;;;2.53;2.28;;;;;;;12.35;90.70;100391.88;4934808;29;20130;-73
2022/12/04 02:53:23;;;;;;;2.92;2.53;;;;;;;12.15;92.09;100379.25;4936367;29;20380;-73
2022/12/04 02:55:56;;;;;;;2.78;2.03;;;;;;;12.20;91.79;100371.78;4935680;29;20051;-74
2022/12/04 02:58:31;;;;;;;4.32;2.38;;;;;;;12.29;91.46;100366.44;4936531;29;20051;-73
2022/12/04 03:01:18;;;;;;;2.20;2.00;;;;;;;12.38;91.39;100357.53;4934517;29;20064;-74
2022/12/04 03:04:14;;;;;;;3.30;2.22;;;;;;;12.31;91.70;100355.97;4935241;29;20514;-73
2022/12/04 03:06:48;;;;;;;5.20;2.53;;;;;;;12.34;91.94;100360.88;4933290;29;20415;-73
2022/12/04 03:09:22;;;;;;;2.67;2.35;;;;;;;12.57;91.05;100350.09;4919749;29;20499;-74
2022/12/04 03:11:56;;;;;;;;;;;;;;;12.42;91.39;100350.34;4931452;29;20043;-72
2022/12/04 03:14:31;;;;;;;4.43;2.40;;;;;;;12.43;91.50;100346.47;4935942;29;19926;-72
2022/12/04 03:17:06;;;;;;;2.40;2.20;;;;;;;12.43;91.33;100336.34;4934546;29;20044;-74
2022/12/04 03:19:40;;;;;;;2.85;2.30;;;;;;;12.46;92.27;100341.22;4936143;29;20490;-73
2022/12/04 03:22:14;;;;;;;2.45;2.25;;;;;;;12.35;93.01;100335.06;4933536;29;20055;-74
2022/12/04 03:24:47;;;;;;;3.72;2.47;;;;;;;12.44;93.14;100320.66;4936067;29;20048;-74
2022/12/04 03:27:37;;;;;;;4.85;2.17;;;;;;;12.50;93.51;100309.31;4935913;29;20052;-74
2022/12/04 03:30:18;;;;;;;2.60;2.03;;;;;;;12.35;93.59;100302.16;4935883;29;20072;-73
2022/12/04 03:33:01;;;;;;;2.33;1.98;;;;;;;12.21;93.69;100304.81;4915638;29;20056;-74
2022/12/04 03:35:51;;;;;;;2.78;2.13;;;;;;;12.37;93.01;100301.84;4928456;29;20047;-74
2022/12/04 03:38:19;;;;;;;2.97;1.80;;;;;;;12.52;91.83;100298.03;4935719;29;20055;-72
2022/12/04 03:40:50;;;;;;;2.47;1.77;;;;;;;12.47;92.62;100296.19;4931564;29;20490;-72
2022/12/04 03:43:28;;;;;;;2.20;1.73;;;;;;;12.39;92.77;100304.28;4935008;29;20043;-73
2022/12/04 03:46:34;;;;;;;2.33;1.80;;;;;;;12.42;93.06;100306.44;4932148;29;20455;-74
2022/12/04 03:49:18;;;;;;;1.30;1.13;;;;;;;12.47;91.79;100298.91;4934929;29;20048;-73
2022/12/04 03:52:03;;;;;;;1.55;1.45;;;;;;;12.36;92.71;100292.78;4935442;29;20055;-75
2022/12/04 03:54:43;;;;;;;4.13;1.60;;;;;;;12.35;94.17;100298.56;4933194;29;20059;-74
2022/12/04 03:57:21;;;;;;;2.38;1.45;;;;;;;12.39;94.99;100298.78;4934063;29;20055;-76
2022/12/04 04:00:01;;;;;;;1.33;1.23;;;;;;;12.35;95.19;100285.69;4933366;29;20522;-74
2022/12/04 04:02:36;;;;;;;1.02;1.00;;;;;;;12.34;94.65;100288.72;4935430;29;20055;-74
2022/12/04 04:05:08;;;;;;;1.27;1.17;;;;;;;12.38;94.15;100277.94;4934148;29;20044;-73
2022/12/04 04:07:42;;;;;;;1.52;1.35;;;;;;;12.39;94.95;100285.06;4933765;29;20039;-74
2022/12/04 04:10:15;;;;;;;2.15;1.38;;;;;;;12.35;94.68;100295.84;4934130;29;20048;-73
2022/12/04 04:24:26;;;;;;;2.25;2.00;;;;;;;12.33;96.10;100271.44;4919328;29;20518;-74
2022/12/04 04:26:57;;;;;;;2.10;1.60;;;;;;;12.13;97.12;100272.59;4935046;29;20403;-74
2022/12/04 04:29:25;;;;;;;3.42;1.88;;;;;;;12.32;96.52;100277.25;4934746;29;20044;-73
2022/12/04 04:32:20;;;;;;;3.20;1.95;;;;;;;12.30;97.11;100271.22;4934669;29;20395;-74
2022/12/04 04:34:54;;;;;;;1.80;1.70;;;;;;;12.19;96.12;100276.88;4929571;29;20565;-73
2022/12/04 04:37:47;;;;;;;4.43;1.58;;;;;;;12.02;97.36;100282.84;4934859;29;20494;-73
2022/12/04 04:40:21;;;;;;;1.65;1.50;;;;;;;12.17;96.90;100283.78;4934944;29;20051;-74
2022/12/04 04:43:17;;;;;;;2.42;1.45;;;;;;;11.95;98.50;100290.63;4934596;29;20051;-72
2022/12/04 04:45:49;;;;;;;2.35;1.75;;;;;;;11.83;99.44;100289.16;4918830;29;20040;-75
2022/12/04 04:48:26;;;;;;;2.58;1.92;;;;;;;11.78;98.57;100302.13;4933480;29;20043;-72
2022/12/04 04:50:55;;;;;;;2.10;1.60;;;;;;;11.62;98.91;100290.53;4934869;29;20078;-73
2022/12/04 04:53:28;;;;;;;1.65;1.50;;;;;;;11.67;99.47;100276.75;4933766;29;20079;-73
2022/12/04 04:55:57;;;;;;;1.90;1.65;;;;;;;11.65;99.94;100273.50;4915637;29;20170;-74
2022/12/04 04:58:25;;;;;;;3.08;1.50;;;;;;;11.41;100.00;100264.22;4922596;29;20044;-73
2022/12/04 05:01:02;;;;;;;2.33;1.33;;;;;;;11.31;100.00;100264.34;4938383;29;20043;-75
2022/12/04 05:03:31;;;;;;;2.35;1.58;;;;;;;11.55;99.89;100268.97;4950366;29;20048;-74
2022/12/04 05:05:59;;;;;;;1.92;1.67;;;;;;;11.38;100.00;100266.72;4935969;29;20410;-76
2022/12/04 05:08:27;;;;;;;1.65;1.50;;;;;;;11.24;100.00;100258.41;4926151;29;20051;-74
2022/12/04 05:10:55;;;;;;;2.00;1.60;;;;;;;11.16;100.00;100268.88;4933674;29;20055;-75
2022/12/04 05:13:23;;;;;;;2.47;1.65;;;;;;;11.19;100.00;100272.16;4933676;29;20047;-77
2022/12/04 05:16:03;;;;;;;1.83;1.48;;;;;;;11.21;100.00;100262.56;4937437;29;20055;-80
2022/12/04 05:18:33;;;;;;;1.63;1.40;;;;;;;11.04;100.00;100264.94;4937964;29;20048;-77
2022/12/04 05:21:06;;;;;;;2.88;1.70;;;;;;;11.01;100.00;100264.41;4937421;29;20046;-74
2022/12/04 05:23:34;;;;;;;2.22;1.38;;;;;;;10.99;100.00;100263.88;4920106;29;20063;-74
2022/12/04 05:26:04;;;;;;;1.55;1.45;;;;;;;11.27;100.00;100257.81;4937444;29;20055;-77
2022/12/04 05:28:31;;;;;;;2.22;1.60;;;;;;;11.27;100.00;100242.22;4937830;29;20403;-77
2022/12/04 05:31:01;;;;;;;5.38;2.03;;;;;;;11.17;100.00;100247.81;4936787;29;20490;-77
2022/12/04 05:33:30;;;;;;;2.00;1.73;;;;;;;11.25;100.00;100236.19;4937204;29;20046;-74
2022/12/04 05:36:08;;;;;;;2.17;1.60;;;;;;;11.26;100.00;100237.00;4937502;29;20486;-76
2022/12/04 05:38:36;;;;;;;1.60;1.50;;;;;;;11.22;100.00;100231.31;4937671;29;20039;-77
2022/12/04 05:41:05;;;;;;;1.50;1.40;;;;;;;11.30;100.00;100235.31;4937857;29;20055;-76
2022/12/04 05:43:33;;;;;;;0.90;0.85;;;;;;;11.39;100.00;100251.94;4937824;29;20058;-76
2022/12/04 05:46:03;;;;;;;3.10;1.58;;;;;;;11.35;100.00;100245.41;4935738;29;20047;-78
2022/12/04 05:48:33;;;;;;;2.17;1.35;;;;;;;11.46;100.00;100262.50;4937531;29;20035;-79
2022/12/04 05:51:09;;;;;;;2.05;1.40;;;;;;;11.69;98.99;100250.69;4936483;29;20056;-77
2022/12/04 05:53:37;;;;;;;1.42;1.27;;;;;;;11.55;98.57;100253.34;4937163;29;20047;-78
2022/12/04 05:56:06;;;;;;;1.50;1.02;;;;;;;11.45;100.00;100258.97;4935341;29;20055;-77
2022/12/04 05:58:36;;;;;;;1.50;1.40;;;;;;;11.29;100.00;100255.59;4937270;29;20047;-81
2022/12/04 06:01:23;;;;;;;2.03;1.65;;;;;;;11.29;100.00;100261.06;4936774;29;20059;-79
2022/12/04 06:03:51;;;;;;;1.50;1.40;;;;;;;11.25;100.00;100276.47;4936816;29;20047;-78
2022/12/04 06:06:21;;;;;;;1.67;1.27;;;;;;;11.33;100.00;100283.25;4936621;29;20043;-74
2022/12/04 06:08:51;;;;;;;1.90;1.58;;;;;;;11.43;100.00;100269.41;4939211;29;20051;-78
2022/12/04 06:11:25;;;;;;;2.33;1.85;;;;;;;11.29;100.00;100253.69;4955774;28;20047;-77
2022/12/04 06:13:53;;;;;;;4.10;1.77;;;;;;;11.55;100.00;100264.31;4955320;29;20043;-76
2022/12/04 06:16:25;;;;;;;2.30;1.42;;;;;;;11.34;100.00;100261.00;4949315;29;20070;-74
2022/12/04 06:18:56;;;;;;;2.72;1.48;;;;;;;11.38;100.00;100269.44;4936437;29;20039;-76
2022/12/04 06:21:27;;;;;;;1.95;1.30;;;;;;;11.11;100.00;100265.41;4937257;29;20399;-77
2022/12/04 06:23:56;;;;;;;1.58;1.35;;;;;;;11.14;100.00;100264.81;4936292;29;20047;-77
2022/12/04 06:26:25;;;;;;;4.40;1.25;;;;;;;11.19;100.00;100275.69;4936581;29;20046;-77
2022/12/04 06:28:55;;;;;;;1.55;1.25;;;;;;;11.18;100.00;100276.81;4936893;29;20055;-77
2022/12/04 06:31:25;;;;;;;1.30;1.20;;;;;;;11.29;100.00;100281.06;4935723;29;20133;-77
2022/12/04 06:33:55;;;;;;;1.60;1.27;;;;;;;11.16;100.00;100287.25;4936950;29;20082;-80
2022/12/04 06:36:23;;;;;;;1.88;1.30;;;;;;;11.23;100.00;100286.88;4936508;29;20490;-76
2022/12/04 06:38:54;;;;;;;1.23;1.10;;;;;;;11.42;100.00;100286.94;4936875;29;20391;-77
2022/12/04 06:41:24;;;;;;;2.22;1.13;;;;;;;11.36;100.00;100296.34;4936199;29;20052;-75
2022/12/04 06:43:52;;;;;;;2.17;1.63;;;;;;;11.54;100.00;100301.03;4925530;29;20055;-74
2022/12/04 06:46:26;;;;;;;2.75;1.60;;;;;;;11.54;100.00;100300.25;4934836;29;20060;-75
2022/12/04 06:48:56;;;;;;;2.05;1.38;;;;;;;11.58;100.00;100297.72;4935454;29;20494;-76
2022/12/04 06:51:30;;;;;;;2.70;1.17;;;;;;;11.63;99.77;100316.84;4936086;29;20047;-75
2022/12/04 06:53:59;;;;;;;1.48;1.38;;;;;;;11.70;99.15;100331.81;4936483;29;20052;-75
2022/12/04 06:56:30;;;;;;;1.98;1.23;;;;;;;11.79;99.11;100329.22;4934897;29;20048;-75
2022/12/04 06:59:00;;;;;;;1.98;1.15;;;;;;;11.70;100.00;100325.53;4936184;29;20505;-76
2022/12/04 07:01:30;;;;;;;2.90;1.80;;;;;;;11.60;98.90;100325.66;4934850;29;20051;-75
2022/12/04 07:04:00;;;;;;;2.50;2.30;;;;;;;11.46;99.11;100331.00;4936110;29;20047;-74
2022/12/04 07:06:32;;;;;;;2.38;2.17;;;;;;;11.29;99.65;100344.06;4935776;29;20048;-75
2022/12/04 07:09:10;;;;;;;2.90;2.70;;;;;;;11.12;99.36;100341.78;4934760;29;20380;-75
2022/12/04 07:11:39;;;;;;;2.85;2.42;;;;;;;10.71;100.00;100329.28;4935960;29;20048;-75
2022/12/04 07:14:07;;;;;;;3.08;2.70;;;;;;;10.69;100.00;100322.47;4936005;29;20054;-75
2022/12/04 07:16:37;;;;;;;2.92;2.72;;;;;;;10.79;100.00;100310.63;4935613;29;20066;-75
2022/12/04 07:19:13;;;;;;;3.30;2.80;;;;;;;10.67;100.00;100328.25;4935956;29;20395;-74
2022/12/04 07:21:42;;;;;;;3.30;2.67;;;;;;;10.68;100.00;100331.78;4935513;29;20051;-74
2022/12/04 07:24:15;;;;;;;3.35;2.60;;;;;;;10.51;100.00;100341.22;4934078;29;20043;-75
2022/12/04 07:26:44;;;;;;;3.75;3.20;;;;;;;10.80;100.00;100342.38;4935515;29;20483;-75
2022/12/04 07:29:12;;;;;;;2.50;2.20;;;;;;;10.77;100.00;100348.41;4935697;29;20395;-75
2022/12/04 07:31:40;;;;;;;3.30;2.47;;;;;;;10.57;100.00;100356.50;4935516;29;20055;-74
2022/12/04 07:34:08;;;;;;;2.95;2.75;;;;;;;10.68;100.00;100357.25;4935707;29;20406;-75
2022/12/04 07:36:38;;;;;;;3.00;2.67;;;;;;;10.73;100.00;100359.13;4935141;29;20062;-75
2022/12/04 07:39:06;;;;;;;3.65;3.03;;;;;;;10.71;100.00;100350.38;4935445;29;20079;-74
2022/12/04 07:41:34;;;;;;;2.85;2.65;;;;;;;10.72;100.00;100362.97;4935356;29;20063;-75
2022/12/04 07:44:06;;;;;;;4.47;3.15;;;;;;;10.63;100.00;100354.56;4934077;29;20051;-75
2022/12/04 07:46:34;;;;;;;2.80;2.60;;;;;;;10.51;100.00;100343.94;4934976;29;20399;-75
2022/12/04 07:49:02;;;;;;;4.13;2.83;;;;;;;10.58;100.00;100343.63;4934126;29;20050;-74
2022/12/04 07:51:30;;;;;;;3.35;3.05;;;;;;;10.57;100.00;100351.03;4935277;29;20399;-75
2022/12/04 07:53:58;;;;;;;3.70;3.40;;;;;;;10.61;100.00;100357.56;4934087;29;20547;-75
2022/12/04 07:56:31;;;;;;;4.32;3.58;;;;;;;10.51;100.00;100356.84;4934620;29;20050;-74
2022/12/04 07:59:00;;;;;;;3.88;3.47;;;;;;;10.50;100.00;100363.41;4934009;29;20055;-74
2022/12/04 08:01:29;;;;;;;4.00;3.63;;;;;;;10.53;100.00;100365.56;4935164;29;20491;-75
2022/12/04 08:03:59;;;;;;;5.00;3.70;;;;;;;10.50;100.00;100360.69;4933423;29;20404;-75
2022/12/04 08:06:29;;;;;;;4.15;3.75;;;;;;;10.62;100.00;100369.34;4934464;29;20035;-75
2022/12/04 08:08:57;;;;;;;5.38;4.15;;;;;;;10.58;100.00;100376.47;4934604;29;20055;-75
2022/12/04 08:11:26;;;;;;;5.05;4.55;;;;;;;10.64;100.00;100383.53;4935003;29;20063;-75
2022/12/04 08:14:00;;;;;;;5.68;4.75;;;;;;;10.50;100.00;100372.41;4933489;29;20104;-76
2022/12/04 08:16:30;;;;;;;10.23;5.30;;;;;;;10.27;100.00;100365.72;4933702;29;20773;-75
2022/12/04 08:18:59;;;;;;;5.57;4.70;;;;;;;10.25;100.00;100366.00;4932162;29;20028;-75
2022/12/04 08:21:29;;;;;;;5.10;4.60;;;;;;;10.37;100.00;100386.72;4943753;29;20054;-76
2022/12/04 08:23:59;;;;;;;6.10;4.63;;;;;;;10.07;100.00;100405.75;4953950;29;20502;-72
2022/12/04 08:26:28;;;;;;;5.38;4.78;;;;;;;10.14;100.00;100419.94;4942875;29;20059;-73
2022/12/04 08:28:57;;;;;;;6.20;5.00;;;;;;;10.16;100.00;100412.25;4933934;29;20047;-74
2022/12/04 08:31:31;;;;;;;4.65;4.10;;;;;;;10.34;100.00;100423.66;4934152;29;20070;-74
2022/12/04 08:34:20;;;;;;;5.55;4.35;;;;;;;10.18;100.00;100420.97;4931268;29;20502;-73
2022/12/04 08:36:48;;;;;;;5.35;4.07;;;;;;;10.14;100.00;100419.09;4933935;29;20052;-73
2022/12/04 08:39:16;;;;;;;4.32;3.88;;;;;;;10.18;100.00;100414.72;4932745;29;20068;-75
2022/12/04 08:41:44;;;;;;;4.47;4.07;;;;;;;10.26;100.00;100413.31;4934734;29;20398;-75
2022/12/04 08:44:12;;;;;;;5.93;4.38;;;;;;;10.23;100.00;100411.97;4934309;29;20531;-73
2022/12/04 08:46:40;;;;;;;4.30;3.90;;;;;;;10.27;100.00;100421.22;4933966;29;20059;-75
2022/12/04 08:49:08;;;;;;;5.65;4.80;;;;;;;10.19;100.00;100417.19;4934142;29;20047;-75
2022/12/04 08:51:36;;;;;;;17.23;7.88;;;;;;;10.05;100.00;100421.59;4933802;29;20051;-75
2022/12/04 08:54:07;;;;;;;16.98;7.78;;;;;;;10.18;100.00;100423.72;4933912;29;20391;-73
2022/12/04 08:56:36;;;;;;;22.00;9.65;;;;;;;10.41;100.00;100431.56;4933374;29;20115;-74
2022/12/04 08:59:04;;;;;;;17.38;8.75;;;;;;;10.20;100.00;100443.41;4932758;29;20071;-74
2022/12/04 09:01:32;;;;;;;5.75;3.95;;;;;;;10.33;100.00;100452.09;4933724;29;20060;-74
2022/12/04 09:04:06;;;;;;;7.47;4.75;;;;;;;10.42;100.00;100453.13;4933901;29;20047;-75
2022/12/04 09:06:34;;;;;;;27.35;23.02;;;;;;;10.39;100.00;100453.72;4935375;29;20048;-74
2022/12/04 09:09:02;;;;;;;22.50;18.25;;;;;;;10.35;100.00;100469.06;4933851;29;20062;-74
2022/12/04 09:11:31;;;;;;;11.55;9.40;;;;;;;10.52;100.00;100473.38;4933974;29;20051;-74
2022/12/04 09:14:01;;;;;;;8.80;6.65;;;;;;;10.48;100.00;100478.59;4934253;29;20047;-75
2022/12/04 09:16:29;;;;;;;6.72;5.72;;;;;;;10.44;100.00;100491.19;4934257;29;20055;-74
2022/12/04 09:18:57;;;;;;;7.85;6.43;;;;;;;10.47;100.00;100477.78;4933665;29;20051;-75
2022/12/04 09:21:25;;;;;;;6.55;5.40;;;;;;;10.52;100.00;100487.06;4928461;29;20047;-75
2022/12/04 09:23:53;;;;;;;6.20;5.07;;;;;;;10.69;100.00;100479.28;4941457;29;20051;-75
2022/12/04 09:26:27;;;;;;;5.00;3.83;;;;;;;10.63;100.00;100491.38;4934610;29;20051;-75
2022/12/04 09:28:57;;;;;;;;;;;;;;;10.59;100.00;100493.03;4934476;29;20055;-72
2022/12/04 09:31:25;;;;;;;4.32;3.92;;;;;;;10.75;100.00;100489.09;4933945;29;19930;-71
2022/12/04 09:33:53;;;;;;;4.82;4.03;;;;;;;10.64;100.00;100487.53;4932925;29;20040;-72
2022/12/04 09:36:21;;;;;;;5.32;4.30;;;;;;;10.67;100.00;100489.72;4932753;29;20512;-72
2022/12/04 09:38:51;;;;;;;4.70;4.05;;;;;;;10.71;100.00;100492.72;4933317;29;20510;-72
2022/12/04 09:41:49;;;;;;;5.15;3.72;;;;;;;10.60;100.00;100487.28;4926061;29;20052;-73
2022/12/04 09:44:27;;;;;;;4.82;3.30;;;;;;;10.75;100.00;100489.09;4931169;29;20508;-72
2022/12/04 09:47:13;;;;;;;3.88;3.58;;;;;;;10.86;100.00;100495.31;4923359;29;20436;-73
2022/12/04 09:49:46;;;;;;;4.10;3.47;;;;;;;10.88;100.00;100489.56;4932006;29;21533;-74
2022/12/04 09:52:40;;;;;;;4.03;3.63;;;;;;;10.62;100.00;100503.44;4927323;29;20047;-73
2022/12/04 09:55:35;;;;;;;4.47;3.37;;;;;;;10.75;100.00;100507.44;4933433;29;20404;-76
2022/12/04 09:58:06;;;;;;;3.97;3.50;;;;;;;10.67;100.00;100506.16;4923630;29;20051;-74
2022/12/04 10:00:38;;;;;;;6.80;3.47;;;;;;;10.58;100.00;100503.19;4919637;29;20040;-75
2022/12/04 10:03:12;;;;;;;4.32;3.28;;;;;;;10.67;100.00;100495.19;4917831;29;20044;-74
2022/12/04 10:06:15;;;;;;;4.45;3.63;;;;;;;10.69;100.00;100489.41;4917667;29;20048;-74
2022/12/04 10:09:00;;;;;;;4.05;3.15;;;;;;;10.67;100.00;100503.41;4934163;29;20079;-76
2022/12/04 10:11:45;;;;;;;3.67;3.15;;;;;;;10.61;100.00;100504.53;4925556;29;20047;-74
2022/12/04 10:14:31;;;;;;;4.03;3.47;;;;;;;10.65;100.00;100513.78;4916097;29;20036;-74
2022/12/04 10:17:24;;;;;;;6.38;3.00;;;;;;;10.60;100.00;100508.34;4918582;29;20075;-76
2022/12/04 10:20:10;;;;;;;6.05;2.92;;;;;;;10.62;100.00;100526.13;4916672;29;20048;-77
2022/12/04 10:23:02;;;;;;;3.28;2.97;;;;;;;10.69;100.00;100517.63;4917328;29;20051;-78
2022/12/04 10:25:35;;;;;;;4.20;3.42;;;;;;;10.62;100.00;100525.31;4919781;29;20392;-76
2022/12/04 10:28:30;;;;;;;4.57;3.42;;;;;;;10.63;100.00;100521.47;4929846;29;20048;-77
2022/12/04 10:31:02;;;;;;;5.85;4.38;;;;;;;10.61;100.00;100520.97;4919758;29;20044;-77
2022/12/04 10:33:38;;;;;;;7.65;4.43;;;;;;;10.66;100.00;100515.44;4931645;29;20039;-77
2022/12/04 10:36:12;;;;;;;5.68;4.28;;;;;;;10.64;100.00;100509.44;4917016;29;20040;-76
2022/12/04 10:38:53;;;;;;;10.45;4.05;;;;;;;10.69;100.00;100511.31;4917032;29;20063;-77
2022/12/04 10:41:26;;;;;;;7.97;4.13;;;;;;;10.55;100.00;100511.13;4920228;29;20036;-77
2022/12/04 10:43:54;;;;;;;5.07;3.58;;;;;;;10.62;100.00;100511.63;4915580;29;20044;-77
2022/12/04 10:46:24;;;;;;;7.55;4.38;;;;;;;10.62;100.00;100519.84;4916777;29;20047;-76
2022/12/04 10:49:08;;;;;;;5.72;3.75;;;;;;;10.61;100.00;100521.75;4916966;29;20048;-77
2022/12/04 10:51:41;;;;;;;6.55;4.53;;;;;;;10.50;100.00;100522.09;4920679;29;20055;-77
2022/12/04 10:54:36;;;;;;;7.90;5.57;;;;;;;10.47;100.00;100527.00;4919598;29;20048;-78
2022/12/04 10:57:05;;;;;;;;;;;;;;;10.54;100.00;100521.25;4918231;29;20055;-77
2022/12/04 10:59:37;;;;;;;10.95;5.53;;;;;;;10.62;100.00;100523.38;4930205;29;19922;-79
2022/12/04 11:02:11;;;;;;;17.67;13.85;;;;;;;10.56;100.00;100518.25;4919400;29;20055;-79
2022/12/04 11:04:40;;;;;;;11.60;8.02;;;;;;;10.57;100.00;100522.59;4933343;29;20059;-78
2022/12/04 11:07:19;;;;;;;9.57;7.97;;;;;;;10.57;100.00;100526.16;4933399;29;20059;-79
2022/12/04 11:10:17;;;;;;;9.88;4.97;;;;;;;10.44;100.00;100529.50;4935754;29;20048;-78
2022/12/04 11:12:56;;;;;;;6.28;5.03;;;;;;;10.51;100.00;100518.25;4934938;29;20052;-75
2022/12/04 11:15:25;;;;;;;5.93;3.78;;;;;;;10.59;100.00;100534.06;4934365;29;20048;-75
2022/12/04 11:17:54;;;;;;;4.20;3.58;;;;;;;10.58;100.00;100538.75;4937462;29;20502;-76
2022/12/04 11:20:26;;;;;;;5.93;4.05;;;;;;;10.60;100.00;100541.19;4932882;29;20046;-77
2022/12/04 11:22:58;;;;;;;4.53;3.50;;;;;;;10.50;100.00;100544.00;4937260;29;20051;-79
2022/12/04 11:25:33;;;;;;;6.95;4.32;;;;;;;10.40;100.00;100542.88;4930581;29;20513;-76
2022/12/04 11:28:03;;;;;;;5.63;4.45;;;;;;;10.43;100.00;100542.38;4929670;29;20051;-78
2022/12/04 11:30:36;;;;;;;5.30;4.05;;;;;;;10.61;100.00;100551.84;4935190;29;20051;-78
2022/12/04 11:33:19;;;;;;;5.18;4.32;;;;;;;10.72;100.00;100555.34;4920578;29;20059;-77
2022/12/04 11:35:52;;;;;;;4.50;3.85;;;;;;;10.76;100.00;100555.63;4916410;29;20044;-76
2022/12/04 11:38:25;;;;;;;4.15;3.03;;;;;;;10.68;100.00;100559.78;4930669;28;20052;-77
2022/12/04 11:40:59;;;;;;;3.10;2.80;;;;;;;10.67;100.00;100549.94;4926270;29;20051;-77
2022/12/04 11:43:32;;;;;;;5.22;4.57;;;;;;;10.67;100.00;100555.41;4931008;29;20701;-77
2022/12/04 11:46:25;;;;;;;4.28;3.65;;;;;;;10.80;100.00;100544.94;4932574;29;20052;-77
2022/12/04 11:49:31;;;;;;;4.65;3.40;;;;;;;10.86;100.00;100539.13;4923016;29;20075;-77
2022/12/04 11:53:10;;;;;;;6.90;5.10;;;;;;;10.71;100.00;100526.34;4929481;29;20067;-77
2022/12/04 11:56:18;;;;;;;8.68;6.28;;;;;;;10.70;100.00;100541.13;4931565;29;20047;-77
2022/12/04 11:59:13;;;;;;;5.68;4.78;;;;;;;10.74;100.00;100546.88;4932986;29;20055;-78
2022/12/04 12:02:02;;;;;;;6.97;4.60;;;;;;;10.74;100.00;100553.16;4944503;28;20047;-78
2022/12/04 12:05:07;;;;;;;5.80;4.43;;;;;;;10.83;100.00;100556.13;4933364;29;20059;-77
2022/12/04 12:07:46;;;;;;;9.35;7.38;;;;;;;10.83;100.00;100555.31;4932729;29;20047;-77